sensor_id;sensor_type;location;lat;lon;timestamp;P1;durP1;ratioP1;P2;durP2;ratioP2
69170;SDS011;56279;47.902;12.308;2022-10-17T00:00:45;3.00;;;1.70;;
69170;SDS011;56279;47.902;12.308;2022-10-17T00:02:46;6.88;;;1.70;;
69170;SDS011;56279;47.902;12.308;2022-10-17T00:04:48;4.95;;;1.98;;
69170;SDS011;56279;47.902;12.308;2022-10-17T00:06:50;4.30;;;1.60;;
69170;SDS011;56279;47.902;12.308;2022-10-17T00:08:51;5.45;;;1.70;;
69170;SDS011;56279;47.902;12.308;2022-10-17T00:10:57;4.68;;;1.88;;
69170;SDS011;56279;47.902;12.308;2022-10-17T00:13:00;5.22;;;1.80;;
69170;SDS011;56279;47.902;12.308;2022-10-17T00:15:03;5.05;;;2.00;;
69170;SDS011;56279;47.902;12.308;2022-10-17T00:17:05;7.03;;;2.10;;
69170;SDS011;56279;47.902;12.308;2022-10-17T00:19:06;3.58;;;1.60;;
69170;SDS011;56279;47.902;12.308;2022-10-17T00:21:14;5.70;;;2.15;;
69170;SDS011;56279;47.902;12.308;2022-10-17T00:23:16;4.80;;;1.77;;
69170;SDS011;56279;47.902;12.308;2022-10-17T00:25:18;3.05;;;1.90;;
69170;SDS011;56279;47.902;12.308;2022-10-17T00:27:19;3.13;;;1.50;;
69170;SDS011;56279;47.902;12.308;2022-10-17T00:29:21;7.32;;;1.70;;
69170;SDS011;56279;47.902;12.308;2022-10-17T00:31:22;5.30;;;2.05;;
69170;SDS011;56279;47.902;12.308;2022-10-17T00:33:25;2.97;;;1.60;;
69170;SDS011;56279;47.902;12.308;2022-10-17T00:35:27;3.35;;;1.70;;
69170;SDS011;56279;47.902;12.308;2022-10-17T00:37:29;4.30;;;2.07;;
69170;SDS011;56279;47.902;12.308;2022-10-17T00:39:31;4.45;;;1.60;;
69170;SDS011;56279;47.902;12.308;2022-10-17T00:41:32;5.70;;;2.28;;
69170;SDS011;56279;47.902;12.308;2022-10-17T00:46:00;5.65;;;1.90;;
69170;SDS011;56279;47.902;12.308;2022-10-17T00:48:04;2.77;;;1.50;;
69170;SDS011;56279;47.902;12.308;2022-10-17T00:50:09;3.42;;;1.80;;
69170;SDS011;56279;47.902;12.308;2022-10-17T00:52:22;2.88;;;1.70;;
69170;SDS011;56279;47.902;12.308;2022-10-17T00:54:27;2.53;;;1.60;;
69170;SDS011;56279;47.902;12.308;2022-10-17T00:56:34;3.92;;;1.90;;
69170;SDS011;56279;47.902;12.308;2022-10-17T00:58:36;11.60;;;3.00;;
69170;SDS011;56279;47.902;12.308;2022-10-17T01:00:40;5.57;;;1.90;;
69170;SDS011;56279;47.902;12.308;2022-10-17T01:02:42;4.40;;;2.38;;
69170;SDS011;56279;47.902;12.308;2022-10-17T01:04:45;4.47;;;2.42;;
69170;SDS011;56279;47.902;12.308;2022-10-17T01:06:49;3.08;;;1.73;;
69170;SDS011;56279;47.902;12.308;2022-10-17T01:08:50;4.17;;;1.63;;
69170;SDS011;56279;47.902;12.308;2022-10-17T01:11:04;3.67;;;1.70;;
69170;SDS011;56279;47.902;12.308;2022-10-17T01:22:49;5.43;;;2.03;;
69170;SDS011;56279;47.902;12.308;2022-10-17T01:27:25;3.85;;;1.80;;
69170;SDS011;56279;47.902;12.308;2022-10-17T01:29:45;6.88;;;2.10;;
69170;SDS011;56279;47.902;12.308;2022-10-17T01:32:01;5.43;;;1.43;;
69170;SDS011;56279;47.902;12.308;2022-10-17T01:34:09;4.18;;;1.70;;
69170;SDS011;56279;47.902;12.308;2022-10-17T01:38:49;4.55;;;1.85;;
69170;SDS011;56279;47.902;12.308;2022-10-17T01:40:55;4.65;;;1.75;;
69170;SDS011;56279;47.902;12.308;2022-10-17T01:43:25;7.30;;;2.07;;
69170;SDS011;56279;47.902;12.308;2022-10-17T01:45:41;4.43;;;1.90;;
69170;SDS011;56279;47.902;12.308;2022-10-17T01:47:47;4.63;;;2.03;;
69170;SDS011;56279;47.902;12.308;2022-10-17T01:49:51;5.03;;;1.77;;
69170;SDS011;56279;47.902;12.308;2022-10-17T01:52:05;4.80;;;2.10;;
69170;SDS011;56279;47.902;12.308;2022-10-17T01:54:18;5.43;;;1.63;;
69170;SDS011;56279;47.902;12.308;2022-10-17T01:56:23;4.20;;;1.73;;
69170;SDS011;56279;47.902;12.308;2022-10-17T01:58:30;4.30;;;1.88;;
69170;SDS011;56279;47.902;12.308;2022-10-17T02:00:36;4.82;;;2.03;;
69170;SDS011;56279;47.902;12.308;2022-10-17T02:02:41;5.20;;;1.92;;
69170;SDS011;56279;47.902;12.308;2022-10-17T02:04:45;6.23;;;2.50;;
69170;SDS011;56279;47.902;12.308;2022-10-17T02:06:50;5.47;;;2.05;;
69170;SDS011;56279;47.902;12.308;2022-10-17T02:08:51;3.83;;;1.95;;
69170;SDS011;56279;47.902;12.308;2022-10-17T02:10:58;6.50;;;2.05;;
69170;SDS011;56279;47.902;12.308;2022-10-17T02:13:13;5.32;;;2.00;;
69170;SDS011;56279;47.902;12.308;2022-10-17T02:15:46;3.40;;;1.80;;
69170;SDS011;56279;47.902;12.308;2022-10-17T02:18:18;4.13;;;2.20;;
69170;SDS011;56279;47.902;12.308;2022-10-17T02:22:46;5.53;;;1.80;;
69170;SDS011;56279;47.902;12.308;2022-10-17T02:27:14;5.97;;;1.90;;
69170;SDS011;56279;47.902;12.308;2022-10-17T02:29:28;5.82;;;2.00;;
69170;SDS011;56279;47.902;12.308;2022-10-17T02:31:47;3.50;;;1.90;;
69170;SDS011;56279;47.902;12.308;2022-10-17T02:34:10;6.85;;;2.00;;
69170;SDS011;56279;47.902;12.308;2022-10-17T02:36:18;9.43;;;2.10;;
69170;SDS011;56279;47.902;12.308;2022-10-17T02:38:23;10.67;;;2.00;;
69170;SDS011;56279;47.902;12.308;2022-10-17T02:40:29;2.97;;;1.70;;
69170;SDS011;56279;47.902;12.308;2022-10-17T02:42:31;6.05;;;2.08;;
69170;SDS011;56279;47.902;12.308;2022-10-17T02:44:34;6.78;;;2.20;;
69170;SDS011;56279;47.902;12.308;2022-10-17T02:46:38;6.60;;;2.20;;
69170;SDS011;56279;47.902;12.308;2022-10-17T02:48:43;2.93;;;1.57;;
69170;SDS011;56279;47.902;12.308;2022-10-17T02:53:05;5.68;;;2.10;;
69170;SDS011;56279;47.902;12.308;2022-10-17T02:57:30;6.20;;;2.10;;
69170;SDS011;56279;47.902;12.308;2022-10-17T02:59:37;4.53;;;2.40;;
69170;SDS011;56279;47.902;12.308;2022-10-17T03:01:42;4.05;;;1.92;;
69170;SDS011;56279;47.902;12.308;2022-10-17T03:03:44;5.47;;;2.40;;
69170;SDS011;56279;47.902;12.308;2022-10-17T03:05:47;5.05;;;2.00;;
69170;SDS011;56279;47.902;12.308;2022-10-17T03:07:48;3.72;;;2.05;;
69170;SDS011;56279;47.902;12.308;2022-10-17T03:09:50;3.97;;;2.00;;
69170;SDS011;56279;47.902;12.308;2022-10-17T03:11:51;4.40;;;2.10;;
69170;SDS011;56279;47.902;12.308;2022-10-17T03:13:53;4.10;;;2.58;;
69170;SDS011;56279;47.902;12.308;2022-10-17T03:15:56;4.65;;;2.33;;
69170;SDS011;56279;47.902;12.308;2022-10-17T03:17:57;3.80;;;2.00;;
69170;SDS011;56279;47.902;12.308;2022-10-17T03:19:59;3.37;;;1.70;;
69170;SDS011;56279;47.902;12.308;2022-10-17T03:22:00;2.75;;;1.80;;
69170;SDS011;56279;47.902;12.308;2022-10-17T03:24:04;4.80;;;2.03;;
69170;SDS011;56279;47.902;12.308;2022-10-17T03:26:05;8.77;;;2.00;;
69170;SDS011;56279;47.902;12.308;2022-10-17T03:28:10;5.57;;;1.77;;
69170;SDS011;56279;47.902;12.308;2022-10-17T03:30:14;4.00;;;2.07;;
69170;SDS011;56279;47.902;12.308;2022-10-17T03:32:16;4.40;;;1.83;;
69170;SDS011;56279;47.902;12.308;2022-10-17T03:34:17;5.95;;;1.80;;
69170;SDS011;56279;47.902;12.308;2022-10-17T03:36:20;3.70;;;2.00;;
69170;SDS011;56279;47.902;12.308;2022-10-17T03:38:22;3.70;;;1.98;;
69170;SDS011;56279;47.902;12.308;2022-10-17T03:40:24;3.70;;;1.87;;
69170;SDS011;56279;47.902;12.308;2022-10-17T03:42:25;3.63;;;2.00;;
69170;SDS011;56279;47.902;12.308;2022-10-17T03:44:26;3.85;;;2.03;;
69170;SDS011;56279;47.902;12.308;2022-10-17T03:46:28;3.60;;;1.90;;
69170;SDS011;56279;47.902;12.308;2022-10-17T03:48:31;7.38;;;2.00;;
69170;SDS011;56279;47.902;12.308;2022-10-17T03:50:33;9.03;;;2.17;;
69170;SDS011;56279;47.902;12.308;2022-10-17T03:52:35;5.07;;;1.70;;
69170;SDS011;56279;47.902;12.308;2022-10-17T03:54:37;5.45;;;1.83;;
69170;SDS011;56279;47.902;12.308;2022-10-17T03:56:39;3.38;;;1.80;;
69170;SDS011;56279;47.902;12.308;2022-10-17T03:58:45;5.78;;;2.05;;
69170;SDS011;56279;47.902;12.308;2022-10-17T04:00:48;3.90;;;1.60;;
69170;SDS011;56279;47.902;12.308;2022-10-17T04:02:50;5.88;;;1.80;;
69170;SDS011;56279;47.902;12.308;2022-10-17T04:04:53;4.07;;;2.00;;
69170;SDS011;56279;47.902;12.308;2022-10-17T04:06:56;7.78;;;2.20;;
69170;SDS011;56279;47.902;12.308;2022-10-17T04:08:57;5.15;;;2.10;;
69170;SDS011;56279;47.902;12.308;2022-10-17T04:11:13;3.47;;;1.70;;
69170;SDS011;56279;47.902;12.308;2022-10-17T04:13:18;3.00;;;1.70;;
69170;SDS011;56279;47.902;12.308;2022-10-17T04:15:21;5.47;;;1.92;;
69170;SDS011;56279;47.902;12.308;2022-10-17T04:17:24;4.57;;;1.88;;
69170;SDS011;56279;47.902;12.308;2022-10-17T04:19:25;3.60;;;1.90;;
69170;SDS011;56279;47.902;12.308;2022-10-17T04:21:29;4.13;;;2.00;;
69170;SDS011;56279;47.902;12.308;2022-10-17T04:23:33;6.68;;;1.70;;
69170;SDS011;56279;47.902;12.308;2022-10-17T04:25:45;3.83;;;1.90;;
69170;SDS011;56279;47.902;12.308;2022-10-17T04:27:47;3.17;;;1.77;;
69170;SDS011;56279;47.902;12.308;2022-10-17T04:29:49;3.92;;;2.08;;
69170;SDS011;56279;47.902;12.308;2022-10-17T04:31:56;4.57;;;1.83;;
69170;SDS011;56279;47.902;12.308;2022-10-17T04:34:17;6.35;;;1.90;;
69170;SDS011;56279;47.902;12.308;2022-10-17T04:36:19;6.47;;;2.33;;
69170;SDS011;56279;47.902;12.308;2022-10-17T04:38:21;7.90;;;2.17;;
69170;SDS011;56279;47.902;12.308;2022-10-17T04:40:23;7.25;;;1.90;;
69170;SDS011;56279;47.902;12.308;2022-10-17T04:42:27;6.77;;;1.93;;
69170;SDS011;56279;47.902;12.308;2022-10-17T04:44:30;4.93;;;1.85;;
69170;SDS011;56279;47.902;12.308;2022-10-17T04:46:33;3.72;;;1.90;;
69170;SDS011;56279;47.902;12.308;2022-10-17T04:48:35;10.05;;;3.03;;
69170;SDS011;56279;47.902;12.308;2022-10-17T04:50:38;5.20;;;2.00;;
69170;SDS011;56279;47.902;12.308;2022-10-17T04:53:06;5.73;;;1.73;;
69170;SDS011;56279;47.902;12.308;2022-10-17T04:55:08;5.70;;;2.25;;
69170;SDS011;56279;47.902;12.308;2022-10-17T04:57:09;5.82;;;2.10;;
69170;SDS011;56279;47.902;12.308;2022-10-17T04:59:21;4.50;;;2.00;;
69170;SDS011;56279;47.902;12.308;2022-10-17T05:01:35;3.92;;;1.83;;
69170;SDS011;56279;47.902;12.308;2022-10-17T05:03:36;4.57;;;2.40;;
69170;SDS011;56279;47.902;12.308;2022-10-17T05:05:38;6.47;;;2.55;;
69170;SDS011;56279;47.902;12.308;2022-10-17T05:07:42;7.65;;;2.20;;
69170;SDS011;56279;47.902;12.308;2022-10-17T05:09:47;5.00;;;1.90;;
69170;SDS011;56279;47.902;12.308;2022-10-17T05:11:51;4.25;;;2.13;;
69170;SDS011;56279;47.902;12.308;2022-10-17T05:13:54;4.87;;;2.17;;
69170;SDS011;56279;47.902;12.308;2022-10-17T05:15:59;9.00;;;2.40;;
69170;SDS011;56279;47.902;12.308;2022-10-17T05:18:01;5.18;;;2.35;;
69170;SDS011;56279;47.902;12.308;2022-10-17T05:20:04;6.18;;;2.45;;
69170;SDS011;56279;47.902;12.308;2022-10-17T05:22:08;7.20;;;2.40;;
69170;SDS011;56279;47.902;12.308;2022-10-17T05:24:13;5.40;;;2.20;;
69170;SDS011;56279;47.902;12.308;2022-10-17T05:26:15;5.70;;;2.25;;
69170;SDS011;56279;47.902;12.308;2022-10-17T05:28:16;5.97;;;2.78;;
69170;SDS011;56279;47.902;12.308;2022-10-17T05:30:21;4.60;;;2.17;;
69170;SDS011;56279;47.902;12.308;2022-10-17T05:34:49;9.43;;;2.23;;
69170;SDS011;56279;47.902;12.308;2022-10-17T05:36:51;5.43;;;2.33;;
69170;SDS011;56279;47.902;12.308;2022-10-17T05:38:55;4.68;;;2.38;;
69170;SDS011;56279;47.902;12.308;2022-10-17T05:41:00;5.60;;;2.30;;
69170;SDS011;56279;47.902;12.308;2022-10-17T05:43:04;7.18;;;2.50;;
69170;SDS011;56279;47.902;12.308;2022-10-17T05:45:06;8.33;;;2.63;;
69170;SDS011;56279;47.902;12.308;2022-10-17T05:47:08;7.25;;;2.20;;
69170;SDS011;56279;47.902;12.308;2022-10-17T05:49:10;6.88;;;2.28;;
69170;SDS011;56279;47.902;12.308;2022-10-17T05:51:12;3.78;;;2.00;;
69170;SDS011;56279;47.902;12.308;2022-10-17T05:53:15;4.75;;;2.33;;
69170;SDS011;56279;47.902;12.308;2022-10-17T05:55:23;5.20;;;2.60;;
69170;SDS011;56279;47.902;12.308;2022-10-17T05:57:26;5.50;;;2.40;;
69170;SDS011;56279;47.902;12.308;2022-10-17T05:59:28;4.63;;;2.45;;
69170;SDS011;56279;47.902;12.308;2022-10-17T06:01:35;6.05;;;2.60;;
69170;SDS011;56279;47.902;12.308;2022-10-17T06:03:36;8.25;;;2.60;;
69170;SDS011;56279;47.902;12.308;2022-10-17T06:05:40;7.53;;;3.63;;
69170;SDS011;56279;47.902;12.308;2022-10-17T06:07:42;6.88;;;2.60;;
69170;SDS011;56279;47.902;12.308;2022-10-17T06:09:43;6.35;;;2.58;;
69170;SDS011;56279;47.902;12.308;2022-10-17T06:11:46;5.18;;;2.75;;
69170;SDS011;56279;47.902;12.308;2022-10-17T06:13:47;5.25;;;2.20;;
69170;SDS011;56279;47.902;12.308;2022-10-17T06:15:55;5.50;;;2.70;;
69170;SDS011;56279;47.902;12.308;2022-10-17T06:17:57;6.43;;;2.40;;
69170;SDS011;56279;47.902;12.308;2022-10-17T06:19:59;5.47;;;2.33;;
69170;SDS011;56279;47.902;12.308;2022-10-17T06:22:00;3.53;;;2.03;;
69170;SDS011;56279;47.902;12.308;2022-10-17T06:24:03;9.45;;;2.15;;
69170;SDS011;56279;47.902;12.308;2022-10-17T06:26:08;4.33;;;2.40;;
69170;SDS011;56279;47.902;12.308;2022-10-17T06:28:11;5.30;;;2.50;;
69170;SDS011;56279;47.902;12.308;2022-10-17T06:30:13;8.95;;;2.50;;
69170;SDS011;56279;47.902;12.308;2022-10-17T06:32:15;4.88;;;2.50;;
69170;SDS011;56279;47.902;12.308;2022-10-17T06:34:20;6.50;;;2.42;;
69170;SDS011;56279;47.902;12.308;2022-10-17T06:36:22;4.40;;;2.50;;
69170;SDS011;56279;47.902;12.308;2022-10-17T06:38:24;7.90;;;2.70;;
69170;SDS011;56279;47.902;12.308;2022-10-17T06:40:29;6.10;;;2.38;;
69170;SDS011;56279;47.902;12.308;2022-10-17T06:42:32;6.43;;;2.70;;
69170;SDS011;56279;47.902;12.308;2022-10-17T06:44:43;6.38;;;4.13;;
69170;SDS011;56279;47.902;12.308;2022-10-17T06:47:10;10.53;;;3.60;;
69170;SDS011;56279;47.902;12.308;2022-10-17T06:49:18;8.18;;;3.88;;
69170;SDS011;56279;47.902;12.308;2022-10-17T06:51:56;7.22;;;3.92;;
69170;SDS011;56279;47.902;12.308;2022-10-17T06:54:06;9.23;;;3.53;;
69170;SDS011;56279;47.902;12.308;2022-10-17T06:56:22;7.68;;;3.25;;
69170;SDS011;56279;47.902;12.308;2022-10-17T06:58:32;7.43;;;3.07;;
69170;SDS011;56279;47.902;12.308;2022-10-17T07:00:58;4.75;;;2.38;;
69170;SDS011;56279;47.902;12.308;2022-10-17T07:03:04;5.97;;;2.70;;
69170;SDS011;56279;47.902;12.308;2022-10-17T07:05:08;6.30;;;2.90;;
69170;SDS011;56279;47.902;12.308;2022-10-17T07:07:09;6.10;;;2.60;;
69170;SDS011;56279;47.902;12.308;2022-10-17T07:09:12;5.83;;;2.10;;
69170;SDS011;56279;47.902;12.308;2022-10-17T07:11:16;6.03;;;2.92;;
69170;SDS011;56279;47.902;12.308;2022-10-17T07:13:19;7.68;;;2.72;;
69170;SDS011;56279;47.902;12.308;2022-10-17T07:15:21;6.35;;;2.65;;
69170;SDS011;56279;47.902;12.308;2022-10-17T07:17:22;8.80;;;2.78;;
69170;SDS011;56279;47.902;12.308;2022-10-17T07:19:24;6.43;;;2.97;;
69170;SDS011;56279;47.902;12.308;2022-10-17T07:21:26;7.93;;;3.08;;
69170;SDS011;56279;47.902;12.308;2022-10-17T07:23:30;5.88;;;2.88;;
69170;SDS011;56279;47.902;12.308;2022-10-17T07:25:33;5.35;;;2.75;;
69170;SDS011;56279;47.902;12.308;2022-10-17T07:27:40;8.18;;;3.30;;
69170;SDS011;56279;47.902;12.308;2022-10-17T07:29:41;5.87;;;3.00;;
69170;SDS011;56279;47.902;12.308;2022-10-17T07:31:46;6.07;;;2.90;;
69170;SDS011;56279;47.902;12.308;2022-10-17T07:33:49;6.45;;;3.08;;
69170;SDS011;56279;47.902;12.308;2022-10-17T07:35:52;8.68;;;3.60;;
69170;SDS011;56279;47.902;12.308;2022-10-17T07:37:54;6.32;;;2.85;;
69170;SDS011;56279;47.902;12.308;2022-10-17T07:39:56;7.00;;;3.47;;
69170;SDS011;56279;47.902;12.308;2022-10-17T07:41:57;7.45;;;3.40;;
69170;SDS011;56279;47.902;12.308;2022-10-17T07:43:59;7.28;;;3.20;;
69170;SDS011;56279;47.902;12.308;2022-10-17T07:46:06;10.23;;;2.85;;
69170;SDS011;56279;47.902;12.308;2022-10-17T07:48:08;8.55;;;3.28;;
69170;SDS011;56279;47.902;12.308;2022-10-17T07:50:10;5.37;;;2.53;;
69170;SDS011;56279;47.902;12.308;2022-10-17T07:52:11;6.75;;;3.03;;
69170;SDS011;56279;47.902;12.308;2022-10-17T07:54:14;5.43;;;2.65;;
69170;SDS011;56279;47.902;12.308;2022-10-17T07:56:17;5.53;;;2.78;;
69170;SDS011;56279;47.902;12.308;2022-10-17T07:58:18;5.70;;;3.10;;
69170;SDS011;56279;47.902;12.308;2022-10-17T08:00:20;7.73;;;3.63;;
69170;SDS011;56279;47.902;12.308;2022-10-17T08:02:22;4.70;;;2.90;;
69170;SDS011;56279;47.902;12.308;2022-10-17T08:04:25;5.07;;;2.83;;
69170;SDS011;56279;47.902;12.308;2022-10-17T08:06:27;4.88;;;2.72;;
69170;SDS011;56279;47.902;12.308;2022-10-17T08:08:28;6.43;;;2.90;;
69170;SDS011;56279;47.902;12.308;2022-10-17T08:10:31;5.73;;;2.83;;
69170;SDS011;56279;47.902;12.308;2022-10-17T08:12:32;6.15;;;3.40;;
69170;SDS011;56279;47.902;12.308;2022-10-17T08:14:37;8.13;;;2.90;;
69170;SDS011;56279;47.902;12.308;2022-10-17T08:16:39;5.30;;;3.05;;
69170;SDS011;56279;47.902;12.308;2022-10-17T08:18:41;5.68;;;2.65;;
69170;SDS011;56279;47.902;12.308;2022-10-17T08:20:43;8.80;;;2.97;;
69170;SDS011;56279;47.902;12.308;2022-10-17T08:22:53;9.10;;;3.92;;
69170;SDS011;56279;47.902;12.308;2022-10-17T08:24:56;6.53;;;3.42;;
69170;SDS011;56279;47.902;12.308;2022-10-17T08:26:58;7.00;;;3.10;;
69170;SDS011;56279;47.902;12.308;2022-10-17T08:29:00;9.60;;;2.92;;
69170;SDS011;56279;47.902;12.308;2022-10-17T08:31:10;13.60;;;3.33;;
69170;SDS011;56279;47.902;12.308;2022-10-17T08:33:16;5.65;;;2.47;;
69170;SDS011;56279;47.902;12.308;2022-10-17T08:35:17;6.90;;;3.10;;
69170;SDS011;56279;47.902;12.308;2022-10-17T08:37:20;5.78;;;3.00;;
69170;SDS011;56279;47.902;12.308;2022-10-17T08:39:24;8.25;;;3.35;;
69170;SDS011;56279;47.902;12.308;2022-10-17T08:46:33;9.57;;;3.00;;
69170;SDS011;56279;47.902;12.308;2022-10-17T08:48:40;5.55;;;2.53;;
69170;SDS011;56279;47.902;12.308;2022-10-17T08:50:53;7.72;;;3.17;;
69170;SDS011;56279;47.902;12.308;2022-10-17T08:55:21;6.20;;;2.90;;
69170;SDS011;56279;47.902;12.308;2022-10-17T08:57:26;8.70;;;3.50;;
69170;SDS011;56279;47.902;12.308;2022-10-17T08:59:29;8.15;;;3.25;;
69170;SDS011;56279;47.902;12.308;2022-10-17T09:01:45;6.53;;;3.03;;
69170;SDS011;56279;47.902;12.308;2022-10-17T09:22:16;6.13;;;3.05;;
69170;SDS011;56279;47.902;12.308;2022-10-17T09:24:23;5.13;;;2.75;;
69170;SDS011;56279;47.902;12.308;2022-10-17T09:26:43;5.73;;;2.93;;
69170;SDS011;56279;47.902;12.308;2022-10-17T09:28:50;5.13;;;2.75;;
69170;SDS011;56279;47.902;12.308;2022-10-17T09:32:58;6.85;;;3.03;;
69170;SDS011;56279;47.902;12.308;2022-10-17T09:34:59;5.32;;;2.88;;
69170;SDS011;56279;47.902;12.308;2022-10-17T09:37:01;6.70;;;2.90;;
69170;SDS011;56279;47.902;12.308;2022-10-17T09:39:19;6.40;;;2.92;;
69170;SDS011;56279;47.902;12.308;2022-10-17T09:41:35;7.50;;;2.90;;
69170;SDS011;56279;47.902;12.308;2022-10-17T09:43:40;8.88;;;2.90;;
69170;SDS011;56279;47.902;12.308;2022-10-17T09:45:49;8.73;;;3.45;;
69170;SDS011;56279;47.902;12.308;2022-10-17T09:50:32;5.32;;;2.80;;
69170;SDS011;56279;47.902;12.308;2022-10-17T09:52:41;7.85;;;3.35;;
69170;SDS011;56279;47.902;12.308;2022-10-17T09:54:52;6.30;;;3.50;;
69170;SDS011;56279;47.902;12.308;2022-10-17T09:57:04;7.03;;;3.22;;
69170;SDS011;56279;47.902;12.308;2022-10-17T09:59:09;4.37;;;2.50;;
69170;SDS011;56279;47.902;12.308;2022-10-17T10:01:29;7.60;;;2.78;;
69170;SDS011;56279;47.902;12.308;2022-10-17T10:03:33;5.32;;;3.10;;
69170;SDS011;56279;47.902;12.308;2022-10-17T10:05:35;6.10;;;3.10;;
69170;SDS011;56279;47.902;12.308;2022-10-17T10:07:37;5.85;;;2.80;;
69170;SDS011;56279;47.902;12.308;2022-10-17T10:09:40;6.17;;;3.20;;
69170;SDS011;56279;47.902;12.308;2022-10-17T10:13:55;9.77;;;4.00;;
69170;SDS011;56279;47.902;12.308;2022-10-17T10:16:20;6.10;;;3.25;;
69170;SDS011;56279;47.902;12.308;2022-10-17T10:18:33;4.97;;;2.72;;
69170;SDS011;56279;47.902;12.308;2022-10-17T10:20:36;8.87;;;3.50;;
69170;SDS011;56279;47.902;12.308;2022-10-17T10:22:42;5.82;;;2.75;;
69170;SDS011;56279;47.902;12.308;2022-10-17T10:24:44;7.43;;;3.10;;
69170;SDS011;56279;47.902;12.308;2022-10-17T10:26:46;5.57;;;2.70;;
69170;SDS011;56279;47.902;12.308;2022-10-17T10:28:54;7.22;;;3.10;;
69170;SDS011;56279;47.902;12.308;2022-10-17T10:31:02;5.87;;;2.80;;
69170;SDS011;56279;47.902;12.308;2022-10-17T10:33:09;5.82;;;3.20;;
69170;SDS011;56279;47.902;12.308;2022-10-17T10:35:21;5.88;;;2.80;;
69170;SDS011;56279;47.902;12.308;2022-10-17T10:37:41;5.68;;;2.90;;
69170;SDS011;56279;47.902;12.308;2022-10-17T10:39:48;4.90;;;2.63;;
69170;SDS011;56279;47.902;12.308;2022-10-17T10:41:53;5.53;;;2.80;;
69170;SDS011;56279;47.902;12.308;2022-10-17T10:43:54;5.35;;;2.60;;
69170;SDS011;56279;47.902;12.308;2022-10-17T10:45:56;4.75;;;2.60;;
69170;SDS011;56279;47.902;12.308;2022-10-17T10:48:01;7.50;;;2.80;;
69170;SDS011;56279;47.902;12.308;2022-10-17T10:50:07;5.10;;;2.70;;
69170;SDS011;56279;47.902;12.308;2022-10-17T10:52:14;5.97;;;2.93;;
69170;SDS011;56279;47.902;12.308;2022-10-17T10:54:26;5.65;;;3.47;;
69170;SDS011;56279;47.902;12.308;2022-10-17T11:01:11;4.28;;;2.47;;
69170;SDS011;56279;47.902;12.308;2022-10-17T11:03:25;5.50;;;2.70;;
69170;SDS011;56279;47.902;12.308;2022-10-17T11:05:44;5.32;;;2.85;;
69170;SDS011;56279;47.902;12.308;2022-10-17T11:10:20;6.00;;;2.70;;
69170;SDS011;56279;47.902;12.308;2022-10-17T11:14:42;5.00;;;2.30;;
69170;SDS011;56279;47.902;12.308;2022-10-17T11:19:27;6.30;;;3.10;;
69170;SDS011;56279;47.902;12.308;2022-10-17T11:23:59;5.20;;;2.35;;
69170;SDS011;56279;47.902;12.308;2022-10-17T11:26:03;8.53;;;3.07;;
69170;SDS011;56279;47.902;12.308;2022-10-17T11:28:18;5.10;;;2.88;;
69170;SDS011;56279;47.902;12.308;2022-10-17T11:30:22;5.22;;;2.38;;
69170;SDS011;56279;47.902;12.308;2022-10-17T11:32:28;5.50;;;2.65;;
69170;SDS011;56279;47.902;12.308;2022-10-17T11:34:39;5.75;;;2.65;;
69170;SDS011;56279;47.902;12.308;2022-10-17T11:36:45;6.23;;;2.80;;
69170;SDS011;56279;47.902;12.308;2022-10-17T11:38:53;10.77;;;2.70;;
69170;SDS011;56279;47.902;12.308;2022-10-17T11:40:58;9.77;;;2.70;;
69170;SDS011;56279;47.902;12.308;2022-10-17T11:43:04;3.90;;;2.00;;
69170;SDS011;56279;47.902;12.308;2022-10-17T11:45:13;5.93;;;2.47;;
69170;SDS011;56279;47.902;12.308;2022-10-17T11:49:29;5.50;;;2.72;;
69170;SDS011;56279;47.902;12.308;2022-10-17T11:51:37;5.50;;;2.70;;
69170;SDS011;56279;47.902;12.308;2022-10-17T11:56:03;4.65;;;2.60;;
69170;SDS011;56279;47.902;12.308;2022-10-17T11:58:20;6.63;;;2.60;;
69170;SDS011;56279;47.902;12.308;2022-10-17T12:05:40;5.25;;;2.75;;
69170;SDS011;56279;47.902;12.308;2022-10-17T12:07:53;7.68;;;2.38;;
69170;SDS011;56279;47.902;12.308;2022-10-17T12:12:40;5.45;;;2.58;;
69170;SDS011;56279;47.902;12.308;2022-10-17T12:14:44;6.43;;;2.47;;
69170;SDS011;56279;47.902;12.308;2022-10-17T12:16:47;5.50;;;2.47;;
69170;SDS011;56279;47.902;12.308;2022-10-17T12:18:51;6.22;;;2.60;;
69170;SDS011;56279;47.902;12.308;2022-10-17T12:21:11;5.40;;;2.57;;
69170;SDS011;56279;47.902;12.308;2022-10-17T12:25:17;5.90;;;2.55;;
69170;SDS011;56279;47.902;12.308;2022-10-17T12:27:29;5.22;;;2.67;;
69170;SDS011;56279;47.902;12.308;2022-10-17T12:29:37;5.57;;;2.80;;
69170;SDS011;56279;47.902;12.308;2022-10-17T12:31:38;4.57;;;2.90;;
69170;SDS011;56279;47.902;12.308;2022-10-17T12:33:55;5.40;;;2.63;;
69170;SDS011;56279;47.902;12.308;2022-10-17T12:38:18;5.78;;;2.40;;
69170;SDS011;56279;47.902;12.308;2022-10-17T12:42:45;5.60;;;2.90;;
69170;SDS011;56279;47.902;12.308;2022-10-17T12:44:48;5.82;;;2.83;;
69170;SDS011;56279;47.902;12.308;2022-10-17T12:48:59;6.28;;;2.83;;
69170;SDS011;56279;47.902;12.308;2022-10-17T12:53:17;5.63;;;2.77;;
69170;SDS011;56279;47.902;12.308;2022-10-17T12:55:23;8.27;;;2.97;;
69170;SDS011;56279;47.902;12.308;2022-10-17T12:59:33;5.88;;;2.83;;
69170;SDS011;56279;47.902;12.308;2022-10-17T13:01:35;5.45;;;2.67;;
69170;SDS011;56279;47.902;12.308;2022-10-17T13:03:42;6.77;;;3.00;;
69170;SDS011;56279;47.902;12.308;2022-10-17T13:05:47;6.25;;;3.53;;
69170;SDS011;56279;47.902;12.308;2022-10-17T13:07:52;7.82;;;2.75;;
69170;SDS011;56279;47.902;12.308;2022-10-17T13:09:55;6.13;;;2.70;;
69170;SDS011;56279;47.902;12.308;2022-10-17T13:11:57;5.82;;;3.10;;
69170;SDS011;56279;47.902;12.308;2022-10-17T13:14:02;5.10;;;2.70;;
69170;SDS011;56279;47.902;12.308;2022-10-17T13:16:29;5.22;;;3.05;;
69170;SDS011;56279;47.902;12.308;2022-10-17T13:18:31;5.95;;;3.20;;
69170;SDS011;56279;47.902;12.308;2022-10-17T13:20:32;4.68;;;2.55;;
69170;SDS011;56279;47.902;12.308;2022-10-17T13:22:33;5.43;;;2.75;;
69170;SDS011;56279;47.902;12.308;2022-10-17T13:24:38;6.50;;;3.00;;
69170;SDS011;56279;47.902;12.308;2022-10-17T13:26:43;6.32;;;2.53;;
69170;SDS011;56279;47.902;12.308;2022-10-17T13:28:46;5.85;;;2.80;;
69170;SDS011;56279;47.902;12.308;2022-10-17T13:31:25;4.65;;;2.70;;
69170;SDS011;56279;47.902;12.308;2022-10-17T13:33:33;4.45;;;2.38;;
69170;SDS011;56279;47.902;12.308;2022-10-17T13:35:37;5.67;;;2.63;;
69170;SDS011;56279;47.902;12.308;2022-10-17T13:37:39;7.10;;;3.17;;
69170;SDS011;56279;47.902;12.308;2022-10-17T13:39:45;6.75;;;3.35;;
69170;SDS011;56279;47.902;12.308;2022-10-17T13:41:48;4.85;;;2.63;;
69170;SDS011;56279;47.902;12.308;2022-10-17T13:43:56;7.25;;;3.30;;
69170;SDS011;56279;47.902;12.308;2022-10-17T13:46:00;8.33;;;3.37;;
69170;SDS011;56279;47.902;12.308;2022-10-17T13:48:06;7.03;;;3.70;;
69170;SDS011;56279;47.902;12.308;2022-10-17T13:50:24;11.00;;;3.25;;
69170;SDS011;56279;47.902;12.308;2022-10-17T13:52:28;6.95;;;3.33;;
69170;SDS011;56279;47.902;12.308;2022-10-17T13:54:41;5.70;;;3.20;;
69170;SDS011;56279;47.902;12.308;2022-10-17T13:56:53;7.43;;;2.90;;
69170;SDS011;56279;47.902;12.308;2022-10-17T13:58:57;8.85;;;2.67;;
69170;SDS011;56279;47.902;12.308;2022-10-17T14:01:00;6.45;;;2.90;;
69170;SDS011;56279;47.902;12.308;2022-10-17T14:03:02;6.28;;;2.72;;
69170;SDS011;56279;47.902;12.308;2022-10-17T14:07:22;6.87;;;3.63;;
69170;SDS011;56279;47.902;12.308;2022-10-17T14:09:30;9.35;;;3.78;;